createdAt,value
2024-01-10T00:00:16.156Z,29.50
2024-01-10T00:01:16.086Z,28.70
2024-01-10T00:02:17.008Z,29.30
2024-01-10T00:03:16.862Z,30.20
2024-01-10T00:04:16.002Z,29.40
2024-01-10T00:05:19.827Z,28.80
2024-01-10T00:06:16.077Z,29.40
2024-01-10T00:07:16.008Z,29.60
2024-01-10T00:08:15.988Z,28.20
2024-01-10T00:09:15.920Z,29.60
2024-01-10T00:10:15.926Z,28.20
2024-01-10T00:11:15.986Z,30.40
2024-01-10T00:12:15.926Z,28.80
2024-01-10T00:13:15.892Z,28.50
2024-01-10T00:14:15.931Z,30.40
2024-01-10T00:15:15.903Z,29.80
2024-01-10T00:16:15.980Z,30.40
2024-01-10T00:17:15.961Z,30.50
2024-01-10T00:18:16.159Z,30.20
2024-01-10T00:19:15.901Z,31.10
2024-01-10T00:20:15.908Z,30.10
2024-01-10T00:21:15.831Z,29.70
2024-01-10T00:22:15.854Z,30.00
2024-01-10T00:23:16.001Z,29.90
2024-01-10T00:24:15.839Z,30.00
2024-01-10T00:25:15.843Z,29.90
2024-01-10T00:26:15.961Z,30.80
2024-01-10T00:27:15.737Z,29.10
2024-01-10T00:28:15.745Z,29.90
2024-01-10T00:29:15.921Z,31.00
2024-01-10T00:30:16.076Z,30.40
2024-01-10T00:31:15.733Z,30.30
2024-01-10T00:32:15.765Z,30.00
2024-01-10T00:33:15.742Z,29.60
2024-01-10T00:34:15.712Z,30.80
2024-01-10T00:35:15.831Z,29.90
2024-01-10T00:36:15.846Z,29.70
2024-01-10T00:37:15.657Z,31.20
2024-01-10T00:38:15.839Z,31.00
2024-01-10T00:39:15.626Z,29.90
2024-01-10T00:40:15.847Z,31.20
2024-01-10T00:41:15.748Z,29.60
2024-01-10T00:42:15.658Z,30.30
2024-01-10T00:43:15.684Z,30.60
2024-01-10T00:44:15.636Z,30.30
2024-01-10T00:45:16.323Z,29.90
2024-01-10T00:46:15.543Z,29.80
2024-01-10T00:47:15.637Z,29.80
2024-01-10T00:48:15.647Z,31.30
2024-01-10T00:49:15.624Z,30.80
2024-01-10T00:50:15.557Z,30.80
2024-01-10T00:51:15.502Z,30.90
2024-01-10T00:52:15.520Z,30.60
2024-01-10T00:53:15.533Z,31.60
2024-01-10T00:54:15.558Z,31.30
2024-01-10T00:55:15.531Z,30.60
2024-01-10T00:56:15.484Z,30.50
2024-01-10T00:57:15.474Z,30.70
2024-01-10T00:58:15.446Z,30.50
2024-01-10T00:59:15.588Z,31.70
2024-01-10T01:00:16.327Z,31.20
2024-01-10T01:01:15.464Z,31.20
2024-01-10T01:02:15.729Z,30.50
2024-01-10T01:03:15.920Z,30.70
2024-01-10T01:04:15.381Z,31.50
2024-01-10T01:05:15.441Z,32.10
2024-01-10T01:06:15.442Z,31.20
2024-01-10T01:07:15.346Z,31.00
2024-01-10T01:08:15.359Z,31.40
2024-01-10T01:09:15.368Z,31.00
2024-01-10T01:10:15.342Z,32.00
2024-01-10T01:11:15.407Z,31.30
2024-01-10T01:12:15.338Z,31.90
2024-01-10T01:13:15.310Z,31.40
2024-01-10T01:14:15.356Z,31.60
2024-01-10T01:15:15.316Z,31.10
2024-01-10T01:16:15.317Z,30.00
2024-01-10T01:17:15.369Z,31.30
2024-01-10T01:18:15.362Z,31.10
2024-01-10T01:19:15.353Z,32.60
2024-01-10T01:20:15.341Z,31.80
2024-01-10T01:21:15.287Z,30.50
2024-01-10T01:22:15.260Z,30.90
2024-01-10T01:23:18.430Z,32.00
2024-01-10T01:24:15.224Z,32.40
2024-01-10T01:25:15.296Z,32.10
2024-01-10T01:26:15.311Z,31.00
2024-01-10T01:27:15.168Z,31.30
2024-01-10T01:28:15.242Z,31.30
2024-01-10T01:29:15.328Z,30.20
2024-01-10T01:30:15.231Z,31.50
2024-01-10T01:31:15.218Z,31.30
2024-01-10T01:32:15.929Z,31.70
2024-01-10T01:33:15.231Z,31.30
2024-01-10T01:34:15.411Z,31.90
2024-01-10T01:35:15.211Z,31.70
2024-01-10T01:36:15.078Z,31.30
2024-01-10T01:37:15.072Z,32.50
2024-01-10T01:38:15.118Z,33.10
2024-01-10T01:39:15.093Z,32.10
2024-01-10T01:40:15.090Z,32.40
2024-01-10T01:41:15.198Z,32.60
2024-01-10T01:42:15.291Z,32.80
2024-01-10T01:43:15.775Z,32.20
2024-01-10T01:44:15.159Z,32.80
2024-01-10T01:45:15.056Z,32.80
2024-01-10T01:46:15.022Z,32.20
2024-01-10T01:47:15.189Z,32.80
2024-01-10T01:48:15.039Z,32.90
2024-01-10T01:49:15.242Z,33.20
2024-01-10T01:50:15.034Z,33.30
2024-01-10T01:51:14.922Z,33.30
2024-01-10T01:52:15.843Z,32.10
2024-01-10T01:53:15.028Z,33.10
2024-01-10T01:54:14.950Z,33.50
2024-01-10T01:55:14.973Z,33.30
2024-01-10T01:56:15.089Z,32.70
2024-01-10T01:57:14.920Z,33.50
2024-01-10T01:58:14.891Z,32.10
2024-01-10T01:59:14.926Z,32.90
2024-01-10T02:00:14.884Z,33.50
2024-01-10T02:01:15.690Z,34.80
2024-01-10T02:02:15.185Z,33.10
2024-01-10T02:03:15.630Z,32.80
2024-01-10T02:04:15.100Z,31.90
2024-01-10T02:05:15.664Z,33.80
2024-01-10T02:06:15.303Z,33.80
2024-01-10T02:07:15.086Z,34.30
2024-01-10T02:08:15.015Z,34.30
2024-01-10T02:09:14.969Z,34.30
2024-01-10T02:10:14.931Z,34.30
2024-01-10T02:11:14.993Z,33.80
2024-01-10T02:12:15.008Z,35.00
2024-01-10T02:13:14.956Z,34.30
2024-01-10T02:14:15.015Z,33.10
2024-01-10T02:15:15.357Z,34.50
2024-01-10T02:16:15.315Z,35.10
2024-01-10T02:17:14.834Z,34.00
2024-01-10T02:18:14.962Z,34.10
2024-01-10T02:19:14.896Z,35.00
2024-01-10T02:20:15.452Z,34.30
2024-01-10T02:21:14.782Z,34.00
2024-01-10T02:22:14.872Z,34.70
2024-01-10T02:23:14.915Z,34.50
2024-01-10T02:24:14.875Z,34.00
2024-01-10T02:25:14.777Z,33.70
2024-01-10T02:26:15.466Z,34.40
2024-01-10T02:27:14.706Z,34.30
2024-01-10T02:28:14.640Z,34.90
2024-01-10T02:29:14.632Z,35.10
2024-01-10T02:30:14.573Z,34.80
2024-01-10T02:31:14.557Z,35.00
2024-01-10T02:32:14.734Z,35.10
2024-01-10T02:33:14.663Z,34.50
2024-01-10T02:34:14.598Z,34.50
2024-01-10T02:35:14.607Z,33.90
2024-01-10T02:36:14.450Z,33.90
2024-01-10T02:37:14.459Z,35.00
2024-01-10T02:38:14.531Z,34.10
2024-01-10T02:39:14.458Z,32.90
2024-01-10T02:40:14.452Z,34.20
2024-01-10T02:41:14.457Z,34.50
2024-01-10T02:42:14.394Z,34.10
2024-01-10T02:43:14.401Z,34.90
2024-01-10T02:44:14.448Z,34.70
2024-01-10T02:45:14.411Z,34.00
2024-01-10T02:46:14.384Z,34.50
2024-01-10T02:47:14.453Z,35.00
2024-01-10T02:48:14.483Z,33.90
2024-01-10T02:49:14.343Z,34.40
2024-01-10T02:50:14.430Z,34.30
2024-01-10T02:51:14.359Z,35.20
2024-01-10T02:52:14.416Z,34.80
2024-01-10T02:53:14.463Z,33.90
2024-01-10T02:54:15.247Z,34.70
2024-01-10T02:55:14.278Z,34.10
2024-01-10T02:56:14.346Z,34.80
2024-01-10T02:57:14.342Z,35.60
2024-01-10T02:58:14.290Z,35.30
2024-01-10T02:59:14.305Z,34.40
2024-01-10T03:00:14.282Z,35.30
2024-01-10T03:01:14.319Z,34.90
2024-01-10T03:02:14.282Z,35.20
2024-01-10T03:03:14.304Z,36.10
2024-01-10T03:04:14.204Z,35.10
2024-01-10T03:05:14.242Z,35.00
2024-01-10T03:06:14.341Z,35.50
2024-01-10T03:07:14.196Z,36.00
2024-01-10T03:08:14.204Z,35.30
2024-01-10T03:09:14.131Z,36.90
2024-01-10T03:10:14.168Z,36.70
2024-01-10T03:11:14.173Z,35.60
2024-01-10T03:12:14.152Z,35.40
2024-01-10T03:13:14.122Z,37.30
2024-01-10T03:14:14.152Z,34.90
2024-01-10T03:15:14.162Z,35.80
2024-01-10T03:16:14.125Z,35.00
2024-01-10T03:17:14.115Z,35.40
2024-01-10T03:18:14.149Z,35.30
2024-01-10T03:19:14.226Z,35.20
2024-01-10T03:20:14.171Z,36.00
2024-01-10T03:21:14.027Z,36.30
2024-01-10T03:22:14.006Z,36.20
2024-01-10T03:23:14.087Z,36.30
2024-01-10T03:24:13.969Z,36.30
2024-01-10T03:25:14.039Z,36.20
2024-01-10T03:26:14.017Z,36.30
2024-01-10T03:27:14.368Z,36.70
2024-01-10T03:28:13.959Z,35.30
2024-01-10T03:29:14.003Z,36.40
2024-01-10T03:30:13.973Z,37.10
2024-01-10T03:31:13.956Z,36.00
2024-01-10T03:32:14.011Z,37.30
2024-01-10T03:33:14.007Z,36.70
2024-01-10T03:34:14.061Z,37.20
2024-01-10T03:35:13.969Z,37.30
2024-01-10T03:36:13.846Z,36.80
2024-01-10T03:37:13.867Z,36.00
2024-01-10T03:38:13.931Z,36.50
2024-01-10T03:39:13.964Z,38.00
2024-01-10T03:40:13.954Z,37.10
2024-01-10T03:41:13.908Z,37.30
2024-01-10T03:42:13.859Z,35.40
2024-01-10T03:43:13.797Z,36.10
2024-01-10T03:44:13.829Z,36.60
2024-01-10T03:45:13.874Z,36.50
2024-01-10T03:46:13.838Z,36.90
2024-01-10T03:47:13.808Z,35.70
2024-01-10T03:48:13.816Z,35.50
2024-01-10T03:49:13.805Z,35.40
2024-01-10T03:50:13.747Z,37.40
2024-01-10T03:51:13.748Z,37.10
2024-01-10T03:52:13.755Z,37.70
2024-01-10T03:53:13.761Z,37.30
2024-01-10T03:54:13.729Z,36.50
2024-01-10T03:55:13.685Z,36.90
2024-01-10T03:56:13.920Z,36.60
2024-01-10T03:57:13.660Z,36.90
2024-01-10T03:58:13.703Z,36.70
2024-01-10T03:59:13.815Z,36.70
2024-01-10T04:00:13.657Z,37.30
2024-01-10T04:01:13.717Z,36.00
2024-01-10T04:02:13.650Z,36.80
2024-01-10T04:03:13.639Z,37.00
2024-01-10T04:04:13.632Z,36.10
2024-01-10T04:05:13.944Z,37.10
2024-01-10T04:06:13.644Z,36.60
2024-01-10T04:07:13.745Z,36.00
2024-01-10T04:08:15.702Z,36.10
2024-01-10T04:09:13.576Z,36.40
2024-01-10T04:10:13.525Z,35.90
2024-01-10T04:11:13.668Z,37.10
2024-01-10T04:12:13.574Z,36.70
2024-01-10T04:13:13.482Z,35.50
2024-01-10T04:14:13.505Z,37.40
2024-01-10T04:15:13.566Z,36.50
2024-01-10T04:16:13.490Z,37.10
2024-01-10T04:17:13.654Z,37.40
2024-01-10T04:18:17.254Z,36.40
2024-01-10T04:19:13.560Z,37.10
2024-01-10T04:20:13.557Z,37.40
2024-01-10T04:21:13.613Z,36.50
2024-01-10T04:22:13.415Z,37.10
2024-01-10T04:23:13.469Z,38.00
2024-01-10T04:24:13.439Z,37.00
2024-01-10T04:25:13.517Z,37.60
2024-01-10T04:26:13.492Z,38.20
2024-01-10T04:27:13.396Z,38.20
2024-01-10T04:28:13.387Z,36.60
2024-01-10T04:29:13.399Z,37.30
2024-01-10T04:30:13.433Z,36.40
2024-01-10T04:31:13.399Z,36.90
2024-01-10T04:32:13.416Z,36.80
2024-01-10T04:33:13.422Z,38.60
2024-01-10T04:34:13.352Z,37.70
2024-01-10T04:35:13.523Z,37.10
2024-01-10T04:36:13.334Z,36.70
2024-01-10T04:37:13.307Z,37.40
2024-01-10T04:38:13.352Z,36.60
2024-01-10T04:39:13.238Z,38.40
2024-01-10T04:40:13.250Z,36.20
2024-01-10T04:41:13.253Z,38.40
2024-01-10T04:42:13.261Z,36.90
2024-01-10T04:43:13.290Z,36.50
2024-01-10T04:44:13.310Z,37.90
2024-01-10T04:45:13.300Z,37.40
2024-01-10T04:46:13.840Z,36.10
2024-01-10T04:47:13.373Z,39.20
2024-01-10T04:48:13.308Z,36.70
2024-01-10T04:49:13.218Z,37.80
2024-01-10T04:50:14.623Z,38.20
2024-01-10T04:51:13.196Z,36.20
2024-01-10T04:52:13.119Z,37.70
2024-01-10T04:53:13.192Z,38.60
2024-01-10T04:54:13.087Z,38.10
2024-01-10T04:55:13.064Z,37.80
2024-01-10T04:56:13.143Z,37.60
2024-01-10T04:57:13.092Z,37.80
2024-01-10T04:58:13.152Z,38.10
2024-01-10T04:59:13.904Z,37.90
2024-01-10T05:00:13.066Z,38.80
2024-01-10T05:01:13.101Z,38.50
2024-01-10T05:02:13.178Z,37.30
2024-01-10T05:03:13.107Z,38.00
2024-01-10T05:04:13.035Z,38.50
2024-01-10T05:05:13.049Z,38.20
2024-01-10T05:06:13.046Z,38.70
2024-01-10T05:07:12.954Z,37.60
2024-01-10T05:08:13.000Z,36.70
2024-01-10T05:09:12.993Z,37.60
2024-01-10T05:10:13.326Z,37.10
2024-01-10T05:11:13.136Z,37.40
2024-01-10T05:12:13.298Z,40.30
2024-01-10T05:13:12.888Z,38.50
2024-01-10T05:14:13.039Z,38.80
2024-01-10T05:15:12.880Z,38.70
2024-01-10T05:16:13.933Z,38.80
2024-01-10T05:17:13.017Z,39.20
2024-01-10T05:18:12.976Z,38.50
2024-01-10T05:19:12.860Z,37.30
2024-01-10T05:20:12.891Z,38.60
2024-01-10T05:21:12.811Z,38.90
2024-01-10T05:22:12.828Z,37.60
2024-01-10T05:23:12.989Z,39.40
2024-01-10T05:24:13.456Z,39.50
2024-01-10T05:25:12.919Z,38.60
2024-01-10T05:26:12.876Z,38.80
2024-01-10T05:27:12.829Z,39.80
2024-01-10T05:28:12.776Z,39.50
2024-01-10T05:29:12.856Z,38.80
2024-01-10T05:30:12.774Z,38.90
2024-01-10T05:31:12.816Z,38.80
2024-01-10T05:32:12.756Z,39.00
2024-01-10T05:33:12.818Z,38.80
2024-01-10T05:34:12.759Z,38.80
2024-01-10T05:35:12.834Z,38.70
2024-01-10T05:36:12.732Z,39.20
2024-01-10T05:37:12.648Z,39.60
2024-01-10T05:38:12.721Z,37.60
2024-01-10T05:39:12.663Z,38.90
2024-01-10T05:40:12.674Z,39.60
2024-01-10T05:41:12.813Z,39.30
2024-01-10T05:42:12.705Z,38.70
2024-01-10T05:43:12.606Z,39.50
2024-01-10T05:44:12.629Z,39.80
2024-01-10T05:45:12.613Z,38.60
2024-01-10T05:46:13.399Z,40.10
2024-01-10T05:47:12.992Z,39.90
2024-01-10T05:48:12.746Z,39.50
2024-01-10T05:49:12.569Z,39.00
2024-01-10T05:50:13.404Z,39.60
2024-01-10T05:51:12.542Z,39.60
2024-01-10T05:52:12.596Z,38.90
2024-01-10T05:53:12.576Z,39.40
2024-01-10T05:54:12.579Z,39.40
2024-01-10T05:55:12.559Z,40.30
2024-01-10T05:56:12.493Z,39.80
2024-01-10T05:57:12.492Z,39.10
2024-01-10T05:58:12.490Z,38.60
2024-01-10T05:59:12.591Z,38.50
2024-01-10T06:00:12.503Z,38.80
2024-01-10T06:01:12.599Z,40.40
2024-01-10T06:02:12.621Z,38.90
2024-01-10T06:03:12.460Z,38.80
2024-01-10T06:04:12.430Z,39.10
2024-01-10T06:05:12.505Z,37.80
2024-01-10T06:06:12.474Z,37.20
2024-01-10T06:07:12.407Z,39.30
2024-01-10T06:08:12.491Z,38.20
2024-01-10T06:09:12.433Z,39.40
2024-01-10T06:10:12.351Z,37.90
2024-01-10T06:11:12.378Z,39.00
2024-01-10T06:12:12.367Z,39.20
2024-01-10T06:13:12.378Z,38.80
2024-01-10T06:14:12.411Z,39.30
2024-01-10T06:15:12.303Z,39.80
2024-01-10T06:16:12.411Z,38.70
2024-01-10T06:17:12.355Z,39.40
2024-01-10T06:18:12.388Z,39.90
2024-01-10T06:19:12.355Z,38.30
2024-01-10T06:20:12.379Z,39.70
2024-01-10T06:21:12.268Z,40.30
2024-01-10T06:22:12.321Z,38.50
2024-01-10T06:23:12.318Z,39.60
2024-01-10T06:24:12.218Z,39.20
2024-01-10T06:25:12.283Z,39.80
2024-01-10T06:26:12.487Z,39.10
2024-01-10T06:27:12.180Z,38.90
2024-01-10T06:28:12.162Z,39.30
2024-01-10T06:29:12.282Z,40.10
2024-01-10T06:30:12.272Z,39.50
2024-01-10T06:31:13.252Z,38.90
2024-01-10T06:32:12.203Z,38.40
2024-01-10T06:33:12.254Z,39.80
2024-01-10T06:34:12.165Z,39.40
2024-01-10T06:35:12.104Z,39.70
2024-01-10T06:36:12.109Z,40.40
2024-01-10T06:37:12.060Z,40.20
2024-01-10T06:38:12.353Z,39.40
2024-01-10T06:39:12.220Z,39.80
2024-01-10T06:40:12.078Z,40.90
2024-01-10T06:41:12.052Z,40.10
2024-01-10T06:42:11.985Z,40.30
2024-01-10T06:43:12.026Z,39.40
2024-01-10T06:44:12.082Z,40.40
2024-01-10T06:45:11.943Z,39.80
2024-01-10T06:46:11.941Z,40.30
2024-01-10T06:47:11.949Z,39.90
2024-01-10T06:48:11.963Z,40.00
2024-01-10T06:49:12.004Z,39.70
2024-01-10T06:50:11.963Z,39.60
2024-01-10T06:51:12.392Z,39.80
2024-01-10T06:52:11.901Z,39.40
2024-01-10T06:53:11.922Z,39.90
2024-01-10T06:54:11.909Z,39.80
2024-01-10T06:55:11.872Z,39.50
2024-01-10T06:56:11.964Z,40.20
2024-01-10T06:57:11.883Z,40.00
2024-01-10T06:58:11.880Z,39.60
2024-01-10T06:59:11.897Z,40.20
2024-01-10T07:00:11.836Z,39.30
2024-01-10T07:01:11.842Z,39.30
2024-01-10T07:02:11.944Z,38.10
2024-01-10T07:03:11.787Z,39.20
2024-01-10T07:04:11.850Z,38.10
2024-01-10T07:05:11.818Z,38.80
2024-01-10T07:06:11.832Z,40.20
2024-01-10T07:07:11.715Z,38.20
2024-01-10T07:08:11.781Z,37.50
2024-01-10T07:09:11.701Z,38.50
2024-01-10T07:10:11.777Z,38.80
2024-01-10T07:11:11.736Z,38.40
2024-01-10T07:12:11.717Z,39.80
2024-01-10T07:13:11.767Z,37.30
2024-01-10T07:14:11.680Z,38.30
2024-01-10T07:15:11.668Z,39.30
2024-01-10T07:16:11.690Z,38.30
2024-01-10T07:17:11.928Z,38.20
2024-01-10T07:18:11.706Z,39.50
2024-01-10T07:19:11.625Z,39.50
2024-01-10T07:20:11.670Z,38.40
2024-01-10T07:21:11.753Z,38.80
2024-01-10T07:22:11.627Z,39.00
2024-01-10T07:23:11.792Z,39.20
2024-01-10T07:24:11.652Z,37.80
2024-01-10T07:25:11.615Z,39.60
2024-01-10T07:26:11.623Z,37.80
2024-01-10T07:27:11.542Z,37.20
2024-01-10T07:28:11.554Z,38.80
2024-01-10T07:29:11.642Z,38.20
2024-01-10T07:30:11.558Z,39.00
2024-01-10T07:31:11.600Z,38.70
2024-01-10T07:32:11.612Z,38.20
2024-01-10T07:33:11.553Z,38.10
2024-01-10T07:34:11.611Z,39.20
2024-01-10T07:35:11.568Z,37.20
2024-01-10T07:36:11.477Z,38.90
2024-01-10T07:37:11.542Z,38.70
2024-01-10T07:38:11.611Z,38.70
2024-01-10T07:39:11.435Z,38.10
2024-01-10T07:40:11.465Z,38.40
2024-01-10T07:41:11.504Z,37.80
2024-01-10T07:42:11.404Z,39.60
2024-01-10T07:43:11.443Z,37.90
2024-01-10T07:44:11.611Z,38.40
2024-01-10T07:45:11.388Z,39.40
2024-01-10T07:46:11.426Z,39.20
2024-01-10T07:47:12.541Z,38.90
2024-01-10T07:48:13.578Z,38.50
2024-01-10T07:49:11.330Z,38.80
2024-01-10T07:50:11.543Z,39.10
2024-01-10T07:51:11.381Z,39.10
2024-01-10T07:52:11.412Z,38.70
2024-01-10T07:53:11.490Z,38.40
2024-01-10T07:54:11.295Z,39.20
2024-01-10T07:55:11.392Z,39.30
2024-01-10T07:56:11.337Z,39.20
2024-01-10T07:57:11.205Z,37.80
2024-01-10T07:58:11.221Z,38.10
2024-01-10T07:59:11.246Z,40.10
2024-01-10T08:00:11.226Z,38.40
2024-01-10T08:01:11.278Z,37.80
2024-01-10T08:02:11.282Z,38.40
2024-01-10T08:03:11.261Z,39.30
2024-01-10T08:04:14.864Z,38.00
2024-01-10T08:05:11.282Z,38.10
2024-01-10T08:06:17.857Z,37.60
2024-01-10T08:07:11.212Z,38.10
2024-01-10T08:08:13.357Z,39.10
2024-01-10T08:09:11.657Z,38.80
2024-01-10T08:10:11.685Z,37.60
2024-01-10T08:11:11.275Z,37.90
2024-01-10T08:12:11.148Z,36.60
2024-01-10T08:13:12.034Z,38.50
2024-01-10T08:14:11.447Z,38.50
2024-01-10T08:15:11.172Z,36.10
2024-01-10T08:16:12.106Z,38.10
2024-01-10T08:17:11.229Z,38.60
2024-01-10T08:18:11.329Z,37.60
2024-01-10T08:19:11.238Z,38.70
2024-01-10T08:20:11.229Z,37.20
2024-01-10T08:21:11.120Z,38.60
2024-01-10T08:22:10.966Z,38.60
2024-01-10T08:23:11.166Z,39.10
2024-01-10T08:24:11.121Z,38.60
2024-01-10T08:25:11.139Z,38.70
2024-01-10T08:26:11.228Z,39.40
2024-01-10T08:27:10.956Z,39.90
2024-01-10T08:28:11.157Z,40.00
2024-01-10T08:29:10.961Z,39.90
2024-01-10T08:30:11.161Z,38.50
2024-01-10T08:31:11.003Z,40.20
2024-01-10T08:32:11.027Z,40.70
2024-01-10T08:33:11.117Z,40.70
2024-01-10T08:34:11.028Z,40.20
2024-01-10T08:35:11.129Z,39.70
2024-01-10T08:36:10.918Z,40.00
2024-01-10T08:37:10.839Z,40.50
2024-01-10T08:38:11.002Z,40.90
2024-01-10T08:39:11.259Z,40.10
2024-01-10T08:40:10.881Z,39.60
2024-01-10T08:41:10.871Z,39.70
2024-01-10T08:42:10.979Z,39.80
2024-01-10T08:43:10.840Z,39.50
2024-01-10T08:44:10.890Z,40.00
2024-01-10T08:45:10.853Z,40.80
2024-01-10T08:46:10.765Z,41.00
2024-01-10T08:47:10.780Z,40.70
2024-01-10T08:48:11.279Z,41.10
2024-01-10T08:49:10.802Z,41.50
2024-01-10T08:50:11.692Z,41.60
2024-01-10T08:51:10.780Z,42.90
2024-01-10T08:52:10.798Z,42.30
2024-01-10T08:53:11.557Z,40.80
2024-01-10T08:54:10.712Z,41.50
2024-01-10T08:55:13.376Z,42.10
2024-01-10T08:56:10.679Z,41.00
2024-01-10T08:57:10.668Z,41.50
2024-01-10T08:58:10.930Z,41.90
2024-01-10T08:59:10.704Z,42.20
2024-01-10T09:00:10.640Z,41.60
2024-01-10T09:01:10.650Z,43.40
2024-01-10T09:02:10.568Z,43.50
2024-01-10T09:03:10.669Z,41.60
2024-01-10T09:04:10.601Z,42.70
2024-01-10T09:05:10.778Z,44.00
2024-01-10T09:06:11.888Z,42.80
2024-01-10T09:07:10.692Z,42.80
2024-01-10T09:08:11.480Z,43.90
2024-01-10T09:09:10.516Z,43.80
2024-01-10T09:10:10.500Z,43.80
2024-01-10T09:11:10.626Z,43.80
2024-01-10T09:12:10.504Z,44.30
2024-01-10T09:13:10.454Z,44.50
2024-01-10T09:14:11.052Z,45.20
2024-01-10T09:15:10.522Z,42.70
2024-01-10T09:16:10.538Z,44.20
2024-01-10T09:17:10.492Z,43.90
2024-01-10T09:18:10.554Z,43.60
2024-01-10T09:19:11.805Z,44.40
2024-01-10T09:20:10.653Z,45.70
2024-01-10T09:21:10.492Z,44.50
2024-01-10T09:22:11.529Z,43.90
2024-01-10T09:23:11.623Z,44.00
2024-01-10T09:24:18.515Z,42.80
2024-01-10T09:25:11.417Z,45.60
2024-01-10T09:26:10.574Z,44.20
2024-01-10T09:27:10.395Z,44.40
2024-01-10T09:28:10.436Z,44.00
2024-01-10T09:29:10.483Z,43.90
2024-01-10T09:30:10.840Z,43.50
2024-01-10T09:31:10.484Z,44.10
2024-01-10T09:32:10.440Z,43.80
2024-01-10T09:33:10.659Z,43.80
2024-01-10T09:34:10.490Z,42.80
2024-01-10T09:35:10.486Z,43.40
2024-01-10T09:36:10.354Z,43.80
2024-01-10T09:37:10.274Z,43.50
2024-01-10T09:38:10.429Z,42.40
2024-01-10T09:39:10.391Z,44.20
2024-01-10T09:40:10.432Z,43.50
2024-01-10T09:41:10.377Z,43.90
2024-01-10T09:42:10.306Z,45.30
2024-01-10T09:43:10.280Z,44.30
2024-01-10T09:44:10.487Z,42.50
2024-01-10T09:45:10.297Z,44.20
2024-01-10T09:46:10.289Z,43.80
2024-01-10T09:47:10.514Z,42.70
2024-01-10T09:48:10.537Z,41.60
2024-01-10T09:49:10.331Z,42.10
2024-01-10T09:50:10.368Z,42.70
2024-01-10T09:51:10.268Z,40.80
2024-01-10T09:52:10.319Z,42.70
2024-01-10T09:53:10.637Z,40.90
2024-01-10T09:54:10.325Z,41.30
2024-01-10T09:55:10.193Z,41.60
2024-01-10T09:56:10.254Z,41.10
2024-01-10T09:57:10.185Z,41.50
2024-01-10T09:58:10.285Z,41.40
2024-01-10T09:59:10.321Z,41.70
2024-01-10T10:00:10.174Z,42.50
2024-01-10T10:01:10.258Z,43.30
2024-01-10T10:02:10.065Z,42.40
2024-01-10T10:03:10.038Z,42.50
2024-01-10T10:04:10.022Z,42.60
2024-01-10T10:05:10.184Z,43.30
2024-01-10T10:06:14.174Z,42.00
2024-01-10T10:07:09.966Z,42.60
2024-01-10T10:08:09.955Z,41.80
2024-01-10T10:09:10.022Z,42.70
2024-01-10T10:10:09.911Z,42.10
2024-01-10T10:11:10.026Z,42.10
2024-01-10T10:12:09.951Z,42.50
2024-01-10T10:13:12.350Z,42.70
2024-01-10T10:14:09.960Z,42.10
2024-01-10T10:15:09.837Z,42.20
2024-01-10T10:16:09.847Z,42.40
2024-01-10T10:17:10.092Z,43.10
2024-01-10T10:18:09.873Z,42.30
2024-01-10T10:19:09.844Z,42.40
2024-01-10T10:20:09.899Z,42.10
2024-01-10T10:21:09.850Z,43.00
2024-01-10T10:22:09.803Z,42.70
2024-01-10T10:23:10.500Z,42.90
2024-01-10T10:24:09.880Z,42.00
2024-01-10T10:25:09.768Z,42.20
2024-01-10T10:26:09.759Z,43.40
2024-01-10T10:27:09.785Z,42.10
2024-01-10T10:28:15.555Z,43.10
2024-01-10T10:29:09.943Z,42.00
2024-01-10T10:30:09.743Z,41.60
2024-01-10T10:31:09.795Z,41.10
2024-01-10T10:32:10.289Z,42.50
2024-01-10T10:33:09.817Z,42.40
2024-01-10T10:34:09.765Z,41.10
2024-01-10T10:35:18.040Z,41.90
2024-01-10T10:36:09.694Z,40.90
2024-01-10T10:37:09.691Z,41.30
2024-01-10T10:38:09.634Z,40.40
2024-01-10T10:39:09.605Z,40.70
2024-01-10T10:40:09.673Z,39.30
2024-01-10T10:41:09.633Z,40.70
2024-01-10T10:42:09.574Z,39.50
2024-01-10T10:43:09.593Z,38.80
2024-01-10T10:44:09.630Z,38.70
2024-01-10T10:45:09.557Z,38.90
2024-01-10T10:46:09.540Z,38.90
2024-01-10T10:47:12.643Z,38.30
2024-01-10T10:48:09.653Z,37.80
2024-01-10T10:49:10.014Z,38.80
2024-01-10T10:50:09.894Z,38.70
2024-01-10T10:51:09.497Z,39.70
2024-01-10T10:52:09.469Z,40.50
2024-01-10T10:53:09.526Z,39.80
2024-01-10T10:54:09.436Z,39.00
2024-01-10T10:55:09.492Z,38.90
2024-01-10T10:56:09.612Z,39.20
2024-01-10T10:57:09.431Z,39.60
2024-01-10T10:58:11.974Z,39.40
2024-01-10T10:59:09.446Z,38.60
2024-01-10T11:00:09.388Z,38.80
2024-01-10T11:01:09.577Z,39.50
2024-01-10T11:02:09.426Z,38.70
2024-01-10T11:03:09.428Z,38.60
2024-01-10T11:04:09.394Z,37.90
2024-01-10T11:05:09.524Z,38.20
2024-01-10T11:06:09.765Z,38.80
2024-01-10T11:07:09.880Z,38.30
2024-01-10T11:08:09.345Z,37.00
2024-01-10T11:09:09.321Z,37.80
2024-01-10T11:10:09.265Z,38.20
2024-01-10T11:11:09.341Z,36.70
2024-01-10T11:12:09.233Z,36.60
2024-01-10T11:13:09.324Z,35.90
2024-01-10T11:14:09.318Z,34.30
2024-01-10T11:15:09.233Z,36.70
2024-01-10T11:16:09.244Z,34.40
2024-01-10T11:17:09.265Z,36.20
2024-01-10T11:18:10.050Z,33.00
2024-01-10T11:19:09.293Z,34.80
2024-01-10T11:20:09.233Z,34.20
2024-01-10T11:21:09.296Z,34.50
2024-01-10T11:22:09.257Z,33.00
2024-01-10T11:23:09.167Z,31.40
2024-01-10T11:24:09.135Z,31.60
2024-01-10T11:25:09.190Z,31.90
2024-01-10T11:26:09.217Z,29.80
2024-01-10T11:27:09.206Z,31.40
2024-01-10T11:28:10.184Z,31.00
2024-01-10T11:29:09.181Z,31.90
2024-01-10T11:30:09.137Z,31.40
2024-01-10T11:31:09.265Z,29.50
2024-01-10T11:32:09.080Z,29.10
2024-01-10T11:33:09.161Z,29.40
2024-01-10T11:34:09.108Z,28.30
2024-01-10T11:35:09.075Z,28.20
2024-01-10T11:36:08.998Z,27.40
2024-01-10T11:37:08.988Z,26.70
2024-01-10T11:38:09.110Z,26.70
2024-01-10T11:39:09.001Z,27.30
2024-01-10T11:40:09.052Z,26.60
2024-01-10T11:41:09.033Z,27.40
2024-01-10T11:42:09.013Z,26.40
2024-01-10T11:43:08.970Z,26.80
2024-01-10T11:44:08.974Z,26.30
2024-01-10T11:45:08.997Z,25.30
2024-01-10T11:46:09.060Z,24.60
2024-01-10T11:47:08.959Z,24.50
2024-01-10T11:48:09.134Z,24.00
2024-01-10T11:49:08.920Z,24.20
2024-01-10T11:50:09.077Z,24.10
2024-01-10T11:51:08.923Z,23.90
2024-01-10T11:52:08.903Z,24.70
2024-01-10T11:53:08.896Z,23.10
2024-01-10T11:54:08.841Z,23.80
2024-01-10T11:55:08.863Z,24.50
2024-01-10T11:56:08.821Z,24.30
2024-01-10T11:57:08.869Z,23.20
2024-01-10T11:58:08.834Z,25.20
2024-01-10T11:59:08.870Z,24.50
2024-01-10T12:00:08.744Z,24.20
2024-01-10T12:01:08.818Z,24.20
2024-01-10T12:02:08.806Z,23.60
2024-01-10T12:03:08.830Z,23.80
2024-01-10T12:04:15.811Z,22.90
2024-01-10T12:07:44.808Z,22.90
2024-01-10T12:07:50.250Z,23.00
2024-01-10T12:08:50.219Z,24.00
2024-01-10T12:09:50.249Z,23.50
2024-01-10T12:10:50.215Z,23.50
2024-01-10T12:11:50.159Z,23.20
2024-01-10T12:12:50.177Z,23.40
2024-01-10T12:13:50.171Z,23.10
2024-01-10T12:14:50.332Z,23.60
2024-01-10T12:15:50.547Z,25.40
2024-01-10T12:16:50.516Z,24.70
2024-01-10T12:17:50.152Z,25.30
2024-01-10T12:18:50.293Z,24.80
2024-01-10T12:19:50.518Z,26.00
2024-01-10T12:20:50.372Z,26.00
2024-01-10T12:21:50.230Z,25.20
2024-01-10T12:22:50.053Z,26.60
2024-01-10T12:23:50.041Z,26.00
2024-01-10T12:24:50.576Z,26.30
2024-01-10T12:25:50.052Z,26.40
2024-01-10T12:26:50.136Z,25.90
2024-01-10T12:27:50.015Z,25.40
2024-01-10T12:28:49.973Z,25.00
2024-01-10T12:29:49.951Z,25.20
2024-01-10T12:30:50.079Z,25.10
2024-01-10T12:31:49.966Z,25.10
2024-01-10T12:32:50.434Z,25.50
2024-01-10T12:33:50.089Z,25.40
2024-01-10T12:34:50.007Z,26.00
2024-01-10T12:35:49.882Z,26.60
2024-01-10T12:36:49.934Z,28.10
2024-01-10T12:37:49.921Z,27.40
2024-01-10T12:38:49.938Z,27.60
2024-01-10T12:39:49.941Z,27.00
2024-01-10T12:40:49.927Z,28.30
2024-01-10T12:41:49.821Z,27.70
2024-01-10T12:42:49.820Z,27.90
2024-01-10T12:43:49.928Z,28.20
2024-01-10T12:44:49.831Z,28.30
2024-01-10T12:45:49.912Z,27.60
2024-01-10T12:46:49.838Z,28.30
2024-01-10T12:47:49.938Z,28.60
2024-01-10T12:48:49.824Z,28.10
2024-01-10T12:49:50.240Z,27.00
2024-01-10T12:50:49.762Z,27.50
2024-01-10T12:51:52.963Z,26.50
2024-01-10T12:52:49.756Z,27.10
2024-01-10T12:53:49.710Z,26.80